Abbeville, Alabama
Current Conditions -  °F | °C
As of 6:53 PM on Friday 24 Oct 2014 (Local Time) from KDHN Reporting Station
Haze Haze  
Wind Chill: 61°   Ceiling: Unl
Heat Index: 61°   Visibility: 3mi
Dew Point: 47°   Wind: 0mph
Humidity: 60%   Direction: NA
Pressure: 30.04"   Gusts: NA
Location:  31.57°N, 85.25°W
Report Text: KDHN 242353Z 00000KT 3SM HZ CLR 16/08 A3004 RMK AO2 SLP169 T01610083 10250 20139 51006
Loading
Personal Weather Stations






























Interactive Weather Map
Tropical Storm Tracking
New forecast layout! Learn more

10-Day Weather Forecast

Advertisements
Track Severe Weather on mobile